Pagina principale
METAR-TAF:

METAR-TAF

Aeroporti :

Aeroporto di Conakry

Conakry, Guinea

latitudine: 09-34N, longitudine: 013-37W, altezza: 26 m

Osservazione

Il bollettino è stato emesso 6 ore e 59 minuti fa, alle 12:00 UTC
Vento 8 kt da ovest
Temperature 30°C
Umidità 70%
Pressione 1011 hPa
Visibilità 10 km o più
Nubi sparse ad un'altezza di 1500 ft

METAR: GUCY 241200Z 27008KT 9999 SCT015 30/24 Q1011 NOSIG

Ora: 18:59 (18:59 UTC)

Previsione

Il bollettino è stato emesso 7 ore e 59 minuti fa, alle 11:00 UTC
Previsione valida dal 24 alle 12 UTC al 25 alle 18 UTC
Vento 8 kt da ovest
Visibilità: 5000 m
Poco nuvoloso ad un'altezza di 1500 ft
foschia
Temporaneamente
dal 25 alle 09 UTC al 25 alle 12 UTC
Vento 6 kt da sud-ovest
Visibilità 10 km o più
Nubi sparse ad un'altezza di 1500 ft
Nubi sparse ad un'altezza di 11000 ft

TAF: GUCY 241100Z 2412/2518 28008KT 5000 HZ FEW015 PROTB30 TEMPO 2509/2512 22006KT 9999 SCT015 SCT110

Osservazioni e previsioni meteorologiche di più di 4000 aeroporti (messaggi METAR e TAF).

Le stazioni disponibili sono rappresentate dai dischi gialli e rossi sulla carta.

Puntare il mouse per vedere il nome della stazione.

Clicca sopra per visualizzare le osservazioni e previsioni meteorologiche.

Per cambiare la mappa : fare clic sui pulsanti verdi con una croce nera per ingrandire, il pulsante verde con un trattino per diminuire, o sulla freccia verde per le mappe adiacenti.


METAR-TAF: